Time;durP1;ratioP1;P1;durP2;ratioP2;P2;SDS_P1;SDS_P2;PMS_P1;PMS_P2;Temp;Humidity;BMP_temperature;BMP_pressure;BME280_temperature;BME280_humidity;BME280_pressure;Samples;Min_cycle;Max_cycle;Signal;HPM_P1;HPM_P2
2023/06/01 00:00:20;;;;;;;6.80;4.10;;;;;;;14.43;54.88;100645.45;109181;1254;58377;-67
2023/06/01 00:02:49;;;;;;;8.40;4.60;;;;;;;14.46;55.17;100645.55;109147;1254;65320;-65
2023/06/01 00:05:17;;;;;;;8.40;4.20;;;;;;;14.51;55.22;100647.13;109131;1254;61986;-63
2023/06/01 00:07:44;;;;;;;9.50;4.40;;;;;;;14.52;55.27;100647.41;109132;1256;63832;-65
2023/06/01 00:10:12;;;;;;;9.90;4.70;;;;;;;14.50;55.35;100648.64;109194;1254;58187;-65
2023/06/01 00:12:39;;;;;;;7.90;4.50;;;;;;;14.48;55.36;100644.11;109170;1254;59231;-63
2023/06/01 00:15:07;;;;;;;9.00;5.40;;;;;;;14.45;55.49;100640.38;109188;1254;64966;-63
2023/06/01 00:17:35;;;;;;;7.80;5.10;;;;;;;14.40;55.55;100640.66;109129;1254;61447;-63
2023/06/01 00:20:08;;;;;;;9.20;4.90;;;;;;;14.37;55.78;100638.48;109155;1254;62509;-63
2023/06/01 00:22:38;;;;;;;8.20;4.70;;;;;;;14.36;55.98;100639.56;109170;1254;58730;-63
2023/06/01 00:25:07;;;;;;;9.40;4.80;;;;;;;14.36;56.15;100641.54;109152;1253;58162;-62
2023/06/01 00:27:35;;;;;;;6.50;4.20;;;;;;;14.34;56.35;100639.24;109148;1255;63643;-66
2023/06/01 00:30:03;;;;;;;7.30;4.40;;;;;;;14.32;56.21;100643.65;109153;1254;60242;-63
2023/06/01 00:32:30;;;;;;;7.80;4.40;;;;;;;14.28;56.28;100641.48;109192;1253;62517;-63
2023/06/01 00:34:58;;;;;;;7.40;4.10;;;;;;;14.25;56.50;100639.11;109093;1254;58311;-63
2023/06/01 00:37:25;;;;;;;6.70;3.90;;;;;;;14.24;56.55;100641.90;109140;1253;59168;-62
2023/06/01 00:39:53;;;;;;;7.50;3.80;;;;;;;14.26;56.69;100638.37;109149;1254;63799;-64
2023/06/01 00:42:21;;;;;;;6.70;4.20;;;;;;;14.28;56.85;100637.45;109084;1257;60322;-63
2023/06/01 00:44:48;;;;;;;7.40;3.60;;;;;;;14.29;56.86;100636.61;109161;1254;62583;-65
2023/06/01 00:47:44;;;;;;;7.80;4.60;;;;;;;14.27;56.63;100635.80;109128;1253;60232;-65
2023/06/01 00:50:11;;;;;;;7.40;4.20;;;;;;;14.21;56.32;100637.90;108935;1252;58721;-65
2023/06/01 00:52:39;;;;;;;7.80;4.50;;;;;;;14.16;56.26;100640.83;109026;1253;63639;-64
2023/06/01 00:55:08;;;;;;;7.80;4.50;;;;;;;14.11;56.35;100639.35;109190;1253;62066;-66
2023/06/01 00:57:35;;;;;;;7.80;4.70;;;;;;;14.06;56.56;100636.42;108954;1259;62575;-65
2023/06/01 01:00:37;;;;;;;9.10;4.20;;;;;;;14.03;56.83;100636.39;109082;1252;60839;-65
2023/06/01 01:03:07;;;;;;;9.80;4.90;;;;;;;13.99;57.18;100643.29;109099;1256;58382;-64
2023/06/01 01:05:36;;;;;;;17.10;5.50;;;;;;;13.94;57.48;100644.05;109057;1253;67974;-63
2023/06/01 01:08:13;;;;;;;11.80;5.00;;;;;;;13.90;57.90;100645.15;105524;1256;60469;-66
2023/06/01 01:11:10;;;;;;;7.70;3.90;;;;;;;13.89;58.15;100648.56;109074;1254;62473;-63
2023/06/01 01:13:38;;;;;;;9.90;4.90;;;;;;;13.94;58.35;100649.54;108959;1254;59097;-63
2023/06/01 01:17:10;;;;;;;9.40;4.50;;;;;;;13.98;58.44;100649.23;109008;1253;58332;-63
2023/06/01 01:19:53;;;;;;;8.10;4.10;;;;;;;14.01;58.58;100649.48;108867;1254;63858;-63
2023/06/01 01:22:53;;;;;;;7.50;4.50;;;;;;;14.01;58.63;100651.80;108994;1254;61857;-63
2023/06/01 01:25:35;;;;;;;8.20;4.60;;;;;;;13.99;58.51;100648.79;108844;1255;63764;-64
2023/06/01 01:28:27;;;;;;;7.50;3.90;;;;;;;13.92;58.44;100650.59;109146;1254;58487;-66
2023/06/01 01:30:55;;;;;;;7.80;3.80;;;;;;;13.81;58.41;100650.69;108825;1254;58704;-65
2023/06/01 01:33:22;;;;;;;8.80;4.50;;;;;;;13.73;58.31;100649.32;108862;1254;63648;-67
2023/06/01 01:35:50;;;;;;;8.90;4.70;;;;;;;13.64;58.44;100650.80;109133;1254;60129;-64
2023/06/01 01:38:18;;;;;;;8.90;5.20;;;;;;;13.55;58.56;100654.27;108967;1259;62555;-64
2023/06/01 01:41:38;;;;;;;8.10;4.20;;;;;;;13.48;58.67;100655.04;109119;1254;58193;-66
2023/06/01 01:44:06;;;;;;;6.30;3.90;;;;;;;13.48;58.88;100656.11;109229;1253;59662;-63
2023/06/01 01:47:29;;;;;;;9.20;4.20;;;;;;;13.49;58.91;100650.88;109016;1254;64897;-63
2023/06/01 01:50:09;;;;;;;8.00;4.90;;;;;;;13.47;58.82;100651.60;108388;1260;63870;-63
2023/06/01 01:52:41;;;;;;;8.40;4.90;;;;;;;13.43;58.88;100654.43;108935;1258;64174;-62
2023/06/01 01:55:09;;;;;;;7.30;4.70;;;;;;;13.40;58.98;100653.45;109061;1254;58448;-66
2023/06/01 01:57:37;;;;;;;8.10;4.80;;;;;;;13.39;58.88;100652.27;109035;1253;58717;-63
2023/06/01 02:00:08;;;;;;;9.30;4.90;;;;;;;13.38;58.91;100655.00;108930;1253;63623;-64
2023/06/01 02:02:44;;;;;;;7.90;4.10;;;;;;;13.34;58.89;100661.52;109065;1255;60090;-65
2023/06/01 02:05:12;;;;;;;8.10;4.00;;;;;;;13.32;59.03;100664.91;109005;1257;63868;-63
2023/06/01 02:07:40;;;;;;;7.90;4.50;;;;;;;13.29;59.10;100668.67;109008;1254;58442;-64
2023/06/01 02:10:07;;;;;;;8.30;4.20;;;;;;;13.30;59.09;100666.80;109036;1252;58716;-66
2023/06/01 02:12:35;;;;;;;7.90;4.70;;;;;;;13.35;59.04;100663.52;109071;1257;63613;-65
2023/06/01 02:15:03;;;;;;;9.40;4.40;;;;;;;13.38;59.02;100662.55;108855;1254;61283;-65
2023/06/01 02:17:32;;;;;;;10.60;4.10;;;;;;;13.38;58.92;100666.26;109042;1254;63702;-64
2023/06/01 02:20:02;;;;;;;8.50;4.70;;;;;;;13.37;59.05;100661.95;109052;1254;58269;-64
2023/06/01 02:22:30;;;;;;;8.40;4.10;;;;;;;13.36;59.22;100663.26;109128;1254;58441;-64
2023/06/01 02:24:57;;;;;;;8.80;4.30;;;;;;;13.34;59.31;100666.62;109009;1257;64967;-64
2023/06/01 02:27:25;;;;;;;8.20;4.50;;;;;;;13.32;59.44;100667.16;109045;1255;61365;-64
2023/06/01 02:29:52;;;;;;;8.00;4.80;;;;;;;13.30;59.25;100666.27;109242;1254;63901;-63
2023/06/01 02:32:20;;;;;;;7.60;4.90;;;;;;;13.29;58.94;100662.34;109259;1256;58168;-63
2023/06/01 02:34:47;;;;;;;6.90;4.10;;;;;;;13.28;58.80;100664.19;109005;1255;58377;-63
2023/06/01 02:37:15;;;;;;;7.40;4.00;;;;;;;13.30;58.32;100666.93;109070;1254;65370;-63
2023/06/01 02:39:42;;;;;;;8.00;4.20;;;;;;;13.33;57.75;100667.75;109151;1257;60077;-62
2023/06/01 02:42:10;;;;;;;8.20;4.70;;;;;;;13.36;57.68;100667.38;108988;1254;63740;-64
2023/06/01 02:44:37;;;;;;;9.50;4.60;;;;;;;13.38;57.79;100664.03;108917;1253;60009;-66
2023/06/01 02:47:06;;;;;;;8.30;4.80;;;;;;;13.39;57.95;100663.36;109031;1254;60299;-64
2023/06/01 02:49:39;;;;;;;8.60;4.80;;;;;;;13.42;57.93;100663.70;109080;1257;64907;-63
2023/06/01 02:52:09;;;;;;;7.20;4.60;;;;;;;13.40;57.76;100672.65;108481;1257;60118;-60
2023/06/01 02:54:37;;;;;;;8.50;4.90;;;;;;;13.35;57.80;100674.44;108678;1262;62457;-66
2023/06/01 02:57:19;;;;;;;10.10;4.20;;;;;;;13.33;57.86;100674.33;108397;1261;58251;-64
2023/06/01 02:59:52;;;;;;;7.10;4.30;;;;;;;13.30;57.76;100674.22;108470;1261;58494;-63
2023/06/01 03:02:20;;;;;;;6.90;4.30;;;;;;;13.26;57.71;100671.20;108477;1260;63697;-63
2023/06/01 03:04:48;;;;;;;7.70;4.30;;;;;;;13.24;57.63;100666.96;108455;1260;61938;-63
2023/06/01 03:07:16;;;;;;;7.40;3.80;;;;;;;13.23;57.58;100664.95;108448;1265;62676;-64
2023/06/01 03:09:53;;;;;;;7.30;4.20;;;;;;;13.27;57.43;100667.41;108566;1260;58244;-61
2023/06/01 03:12:48;;;;;;;6.70;3.90;;;;;;;13.34;57.28;100664.69;108484;1260;59043;-63
2023/06/01 03:15:16;;;;;;;8.40;4.30;;;;;;;13.38;57.50;100666.98;108536;1260;66007;-63
2023/06/01 03:17:44;;;;;;;8.10;4.50;;;;;;;13.43;57.58;100669.05;108563;1261;60181;-63
2023/06/01 03:20:15;;;;;;;8.40;4.20;;;;;;;13.46;57.39;100666.98;108493;1260;62478;-63
2023/06/01 03:22:43;;;;;;;8.90;4.50;;;;;;;13.51;57.35;100669.59;108481;1256;58280;-61
2023/06/01 03:25:12;;;;;;;8.20;4.80;;;;;;;13.56;57.16;100669.68;108790;1255;59026;-64
2023/06/01 03:27:40;;;;;;;11.40;3.90;;;;;;;13.59;56.75;100669.02;108824;1260;63703;-62
2023/06/01 03:30:10;;;;;;;6.60;3.40;;;;;;;13.63;56.20;100666.29;109111;1254;60095;-63
2023/06/01 03:32:42;;;;;;;8.50;4.30;;;;;;;13.67;55.67;100663.25;109106;1253;62448;-63
2023/06/01 03:35:12;;;;;;;8.70;3.60;;;;;;;13.72;55.52;100665.29;109068;1254;58505;-62
2023/06/01 03:37:41;;;;;;;7.10;4.20;;;;;;;13.77;55.70;100664.98;109025;1254;58802;-63
2023/06/01 03:40:12;;;;;;;7.40;4.20;;;;;;;13.84;55.97;100667.91;109143;1254;64875;-62
2023/06/01 03:42:47;;;;;;;10.20;4.10;;;;;;;13.90;55.87;100668.05;109065;1254;60170;-62
2023/06/01 03:45:18;;;;;;;8.00;4.40;;;;;;;13.98;55.62;100665.97;109044;1254;63711;-63
2023/06/01 03:47:46;;;;;;;8.10;4.10;;;;;;;14.05;55.47;100663.19;109066;1253;58469;-67
2023/06/01 03:50:13;;;;;;;10.40;4.30;;;;;;;14.13;55.38;100662.30;109042;1252;58117;-65
2023/06/01 03:52:41;;;;;;;6.80;3.70;;;;;;;14.24;55.01;100661.51;108998;1254;64852;-66
2023/06/01 03:55:10;;;;;;;7.50;3.70;;;;;;;14.34;53.70;100659.70;109128;1254;61537;-65
2023/06/01 03:58:04;;;;;;;7.40;3.60;;;;;;;14.43;52.30;100660.61;109123;1253;62437;-61
2023/06/01 04:00:32;;;;;;;6.20;3.40;;;;;;;14.52;51.74;100659.99;109063;1254;58286;-66
2023/06/01 04:03:01;;;;;;;8.80;3.50;;;;;;;14.59;51.35;100656.58;108958;1253;58293;-68
2023/06/01 04:05:29;;;;;;;7.10;3.50;;;;;;;14.65;50.87;100654.56;108990;1253;63614;-64
2023/06/01 04:07:57;;;;;;;5.90;3.00;;;;;;;14.72;50.72;100653.63;109062;1254;62037;-63
2023/06/01 04:10:24;;;;;;;6.80;3.50;;;;;;;14.78;50.36;100653.00;109087;1255;66300;-63
2023/06/01 04:12:52;;;;;;;8.00;3.70;;;;;;;14.85;50.34;100647.80;109049;1254;58613;-64
2023/06/01 04:15:32;;;;;;;10.00;3.70;;;;;;;14.92;50.58;100646.58;109124;1254;59309;-63
2023/06/01 04:18:13;;;;;;;6.70;3.50;;;;;;;15.00;50.68;100646.92;108715;1254;63702;-63
2023/06/01 04:21:01;;;;;;;10.80;3.60;;;;;;;15.09;50.51;100645.19;109293;1254;60108;-61
2023/06/01 04:23:29;;;;;;;6.70;3.30;;;;;;;15.17;50.41;100643.55;108296;1254;63704;-64
2023/06/01 04:25:59;;;;;;;7.00;2.90;;;;;;;15.24;50.04;100641.65;108826;1254;58821;-62
2023/06/01 04:28:29;;;;;;;6.70;3.70;;;;;;;15.30;49.71;100640.36;108717;1254;58350;-63
2023/06/01 04:30:57;;;;;;;6.60;3.10;;;;;;;15.38;49.74;100638.36;108912;1254;65475;-61
2023/06/01 04:33:25;;;;;;;9.90;3.60;;;;;;;15.46;49.66;100640.95;108807;1254;64032;-63
2023/06/01 04:35:53;;;;;;;6.50;3.20;;;;;;;15.55;49.48;100642.60;108858;1254;63772;-67
2023/06/01 04:38:24;;;;;;;6.30;3.30;;;;;;;15.63;49.13;100639.86;108727;1257;59835;-62
2023/06/01 04:40:55;;;;;;;6.10;3.40;;;;;;;15.72;48.73;100639.09;108820;1257;58273;-65
2023/06/01 04:43:23;;;;;;;9.20;3.80;;;;;;;15.82;48.54;100635.21;108905;1254;64896;-63
2023/06/01 04:45:51;;;;;;;8.00;3.50;;;;;;;15.90;48.49;100633.36;108877;1254;60217;-63
2023/06/01 04:48:21;;;;;;;8.10;3.00;;;;;;;15.98;48.48;100632.52;108902;1254;64325;-62
2023/06/01 04:50:57;;;;;;;7.00;3.20;;;;;;;16.09;48.51;100632.58;108763;1254;58618;-63
2023/06/01 04:53:26;;;;;;;6.50;3.10;;;;;;;16.19;48.32;100629.44;108757;1254;59782;-63
2023/06/01 04:55:56;;;;;;;8.10;3.60;;;;;;;16.29;48.32;100626.50;109030;1253;66113;-63
2023/06/01 04:58:25;;;;;;;7.30;2.80;;;;;;;16.40;47.93;100625.39;109176;1253;61393;-65
2023/06/01 05:00:54;;;;;;;5.90;3.10;;;;;;;16.51;47.52;100624.05;109022;1252;64852;-64
2023/06/01 05:03:21;;;;;;;6.40;2.60;;;;;;;16.64;46.79;100624.73;109048;1254;59917;-65
2023/06/01 05:05:48;;;;;;;6.40;3.00;;;;;;;16.77;46.28;100621.65;108533;1254;59380;-65
2023/06/01 05:08:16;;;;;;;6.80;2.70;;;;;;;16.89;45.65;100618.09;106415;1259;64931;-63
2023/06/01 05:10:44;;;;;;;6.20;3.00;;;;;;;17.02;45.03;100616.77;106090;1258;60450;-64
2023/06/01 05:13:11;;;;;;;7.10;3.00;;;;;;;17.15;44.06;100617.15;105838;1257;63725;-64
2023/06/01 05:15:39;;;;;;;7.00;2.60;;;;;;;17.28;42.94;100608.79;106309;1254;60597;-64
2023/06/01 05:18:07;;;;;;;8.40;3.00;;;;;;;17.42;42.60;100606.94;106211;1254;60610;-63
2023/06/01 05:20:35;;;;;;;7.40;2.80;;;;;;;17.56;42.57;100609.13;105187;1254;63694;-62
2023/06/01 05:23:02;;;;;;;6.00;2.70;;;;;;;17.70;41.58;100610.02;106861;1254;72564;-62
2023/06/01 05:25:30;;;;;;;6.80;2.70;;;;;;;17.82;41.27;100606.05;104848;1256;62489;-60
2023/06/01 05:27:58;;;;;;;5.10;2.60;;;;;;;17.94;40.72;100607.13;104783;1258;60568;-66
2023/06/01 05:30:41;;;;;;;5.30;2.30;;;;;;;18.08;40.07;100603.46;105151;1256;60508;-65
2023/06/01 05:33:09;;;;;;;5.70;2.00;;;;;;;18.22;40.02;100603.69;104903;1262;65092;-66
2023/06/01 05:35:37;;;;;;;7.70;2.50;;;;;;;18.36;39.41;100605.02;108905;1254;60258;-67
2023/06/01 05:39:03;;;;;;;6.40;2.60;;;;;;;18.51;39.32;100601.98;108770;1254;64149;-57
2023/06/01 05:41:37;;;;;;;11.00;2.90;;;;;;;18.69;38.51;100601.45;108820;1254;59029;-56
2023/06/01 05:44:08;;;;;;;6.20;2.50;;;;;;;18.85;37.56;100597.53;108903;1254;58480;-59
2023/06/01 05:46:35;;;;;;;7.10;2.70;;;;;;;19.00;37.40;100593.88;108962;1254;63630;-59
2023/06/01 05:49:03;;;;;;;5.80;2.50;;;;;;;19.12;37.67;100595.23;108949;1252;61409;-59
2023/06/01 05:51:30;;;;;;;5.30;2.40;;;;;;;19.23;37.89;100597.38;108956;1253;64243;-60
2023/06/01 05:53:58;;;;;;;6.00;2.40;;;;;;;19.34;37.31;100595.46;108897;1256;59791;-60
2023/06/01 05:56:25;;;;;;;8.00;2.60;;;;;;;19.46;36.92;100601.12;108918;1256;58792;-59
2023/06/01 05:58:53;;;;;;;6.20;2.50;;;;;;;19.60;36.55;100601.71;108705;1254;64289;-59
2023/06/01 06:01:22;;;;;;;6.40;2.60;;;;;;;19.71;36.37;100600.25;108910;1253;61024;-60
2023/06/01 06:03:50;;;;;;;6.60;2.40;;;;;;;19.81;36.61;100599.34;108784;1253;64623;-60
2023/06/01 06:06:18;;;;;;;6.30;2.60;;;;;;;19.91;36.48;100591.45;108864;1253;58940;-60
2023/06/01 06:08:50;;;;;;;5.60;2.40;;;;;;;20.02;36.26;100587.73;108847;1253;59340;-59
2023/06/01 06:11:18;;;;;;;10.60;2.80;;;;;;;20.14;35.39;100587.27;109174;1254;63612;-60
2023/06/01 06:13:56;;;;;;;4.80;2.20;;;;;;;20.28;35.16;100585.29;108705;1257;60287;-61
2023/06/01 06:16:24;;;;;;;5.30;2.40;;;;;;;20.43;35.13;100590.45;108904;1254;63710;-59
2023/06/01 06:18:51;;;;;;;6.40;2.60;;;;;;;20.57;34.75;100588.30;108840;1259;58536;-59
2023/06/01 06:21:43;;;;;;;7.00;2.40;;;;;;;20.69;33.89;100590.65;108897;1259;59393;-59
2023/06/01 06:24:11;;;;;;;5.00;2.20;;;;;;;20.80;33.28;100586.44;109006;1256;65317;-59
2023/06/01 06:26:39;;;;;;;6.80;2.50;;;;;;;20.90;33.15;100581.44;106573;1257;60496;-60
2023/06/01 06:29:07;;;;;;;5.60;2.20;;;;;;;20.99;32.78;100584.48;108879;1254;63748;-60
2023/06/01 06:31:34;;;;;;;5.80;2.40;;;;;;;21.10;32.96;100584.61;108929;1254;58702;-60
2023/06/01 06:34:02;;;;;;;5.90;2.50;;;;;;;21.19;32.98;100583.65;108982;1254;59180;-62
2023/06/01 06:36:30;;;;;;;6.40;2.90;;;;;;;21.24;33.17;100579.55;108855;1254;63801;-60
2023/06/01 06:38:57;;;;;;;6.20;2.40;;;;;;;21.27;33.05;100584.61;105576;1259;61833;-59
2023/06/01 06:41:25;;;;;;;9.30;2.60;;;;;;;21.37;32.82;100583.14;104439;1257;63659;-59
2023/06/01 06:43:52;;;;;;;5.50;2.30;;;;;;;21.44;32.61;100578.28;104743;1257;61520;-59
2023/06/01 06:46:20;;;;;;;8.70;2.60;;;;;;;21.50;33.24;100575.08;109078;1253;58640;-60
2023/06/01 06:48:48;;;;;;;6.20;2.10;;;;;;;21.59;33.66;100574.63;108781;1253;289514;-61
2023/06/01 06:52:22;;;;;;;6.60;2.30;;;;;;;21.59;32.48;100574.34;101875;1290;600203;-62
2023/06/01 06:54:50;;;;;;;5.00;2.00;;;;;;;21.87;32.33;100575.16;108243;1266;58987;-61
2023/06/01 06:57:18;;;;;;;4.90;2.00;;;;;;;21.95;31.75;100581.16;108219;1266;57813;-62
2023/06/01 06:59:45;;;;;;;5.40;2.00;;;;;;;22.07;31.28;100576.02;108149;1267;63290;-60
2023/06/01 07:02:13;;;;;;;7.10;2.10;;;;;;;22.16;31.36;100576.02;108199;1266;62235;-61
2023/06/01 07:04:40;;;;;;;6.30;2.30;;;;;;;22.23;31.54;100575.45;108035;1266;188105;-62
2023/06/01 07:07:08;;;;;;;4.90;1.90;;;;;;;22.24;30.98;100573.67;108371;1262;56993;-60
2023/06/01 07:09:36;;;;;;;6.10;2.00;;;;;;;22.29;30.04;100572.49;108341;1263;58138;-60
2023/06/01 07:12:03;;;;;;;5.60;1.80;;;;;;;22.34;29.95;100568.91;108417;1263;63306;-60
2023/06/01 07:14:31;;;;;;;5.90;2.10;;;;;;;22.44;29.95;100566.02;108458;1264;61359;-59
2023/06/01 07:16:58;;;;;;;5.30;1.90;;;;;;;22.57;29.96;100565.11;108394;1263;73761;-61
2023/06/01 07:19:32;;;;;;;5.50;1.80;;;;;;;22.63;29.25;100564.52;108432;1263;59739;-61
2023/06/01 07:22:00;;;;;;;5.60;2.10;;;;;;;22.67;29.11;100564.70;108334;1264;57963;-67
2023/06/01 07:24:28;;;;;;;5.50;1.70;;;;;;;22.71;29.11;100566.79;105924;1264;62844;-68
2023/06/01 07:26:56;;;;;;;7.40;2.10;;;;;;;22.73;28.95;100572.08;108343;1263;60329;-68
2023/06/01 07:29:23;;;;;;;5.90;1.90;;;;;;;22.76;28.69;100570.55;108450;1263;63723;-63
2023/06/01 07:31:52;;;;;;;5.30;1.90;;;;;;;22.82;28.72;100562.63;108440;1262;57461;-64
2023/06/01 07:34:19;;;;;;;5.30;1.70;;;;;;;22.88;28.87;100559.90;108443;1263;59456;-64
2023/06/01 07:36:48;;;;;;;3.60;1.50;;;;;;;22.95;29.03;100555.72;108400;1268;64074;-65
2023/06/01 07:39:16;;;;;;;6.80;2.30;;;;;;;23.03;29.17;100550.96;108430;1261;61483;-68
2023/06/01 07:41:44;;;;;;;5.80;1.90;;;;;;;23.10;29.13;100546.59;108411;1263;63751;-65
2023/06/01 07:44:12;;;;;;;7.60;1.90;;;;;;;23.19;29.26;100547.48;108370;1264;58605;-66
2023/06/01 07:46:39;;;;;;;6.20;2.00;;;;;;;23.26;28.85;100543.14;108358;1262;57826;-67
2023/06/01 07:49:07;;;;;;;6.00;1.70;;;;;;;23.32;28.38;100537.66;108437;1262;64193;-65
2023/06/01 07:51:36;;;;;;;5.90;2.00;;;;;;;23.37;28.84;100540.92;106521;1264;60281;-64
2023/06/01 07:54:03;;;;;;;5.00;1.80;;;;;;;23.38;28.73;100539.19;104667;1264;64330;-64
2023/06/01 07:56:31;;;;;;;3.90;1.80;;;;;;;23.36;28.64;100534.23;108410;1266;57507;-66
2023/06/01 07:58:59;;;;;;;4.00;1.80;;;;;;;23.36;28.97;100529.67;108422;1263;58283;-64
2023/06/01 08:01:26;;;;;;;6.10;2.30;;;;;;;23.39;29.42;100530.27;108405;1262;64631;-64
2023/06/01 08:03:55;;;;;;;4.10;1.30;;;;;;;23.43;28.45;100529.50;108417;1264;61343;-68
2023/06/01 08:06:23;;;;;;;6.10;2.20;;;;;;;23.44;28.35;100524.87;108276;1262;71415;-67
2023/06/01 08:08:51;;;;;;;4.90;2.00;;;;;;;23.48;28.69;100520.52;108378;1263;57436;-68
2023/06/01 08:11:18;;;;;;;5.40;1.90;;;;;;;23.54;28.66;100516.25;108378;1262;57845;-66
2023/06/01 08:13:46;;;;;;;5.90;1.80;;;;;;;23.60;29.02;100512.33;108387;1263;64202;-66
2023/06/01 08:16:13;;;;;;;6.80;2.30;;;;;;;23.66;29.11;100512.71;108327;1264;60134;-67
2023/06/01 08:18:41;;;;;;;5.10;2.10;;;;;;;23.70;28.39;100513.77;108380;1264;64240;-65
2023/06/01 08:21:09;;;;;;;5.80;2.10;;;;;;;23.73;27.75;100511.88;108386;1263;58071;-68
2023/06/01 08:23:36;;;;;;;6.40;2.10;;;;;;;23.76;27.88;100507.91;108390;1264;57680;-65
2023/06/01 08:26:04;;;;;;;7.60;2.20;;;;;;;23.81;27.90;100509.37;108386;1263;62921;-69
2023/06/01 08:28:32;;;;;;;9.90;2.20;;;;;;;23.86;27.89;100507.27;108440;1262;63680;-65
2023/06/01 08:31:00;;;;;;;4.20;1.80;;;;;;;23.93;28.19;100512.23;108427;1263;63748;-68
2023/06/01 08:33:28;;;;;;;4.90;1.80;;;;;;;24.03;27.72;100512.80;106445;1267;59504;-66
2023/06/01 08:35:56;;;;;;;10.50;2.40;;;;;;;24.10;27.86;100503.79;108365;1262;57677;-63
2023/06/01 08:38:24;;;;;;;8.70;2.50;;;;;;;24.17;28.05;100498.44;108457;1263;73054;-68
2023/06/01 08:40:52;;;;;;;7.70;2.30;;;;;;;24.23;27.89;100495.33;105166;1269;60114;-64
2023/06/01 08:43:20;;;;;;;4.40;1.80;;;;;;;24.30;26.89;100491.84;104198;1263;62471;-65
2023/06/01 08:45:48;;;;;;;5.80;1.80;;;;;;;24.32;26.98;100487.08;104102;1264;59644;-63
2023/06/01 08:48:17;;;;;;;5.90;2.40;;;;;;;24.36;26.52;100484.95;104454;1264;60457;-64
2023/06/01 08:50:49;;;;;;;12.40;1.90;;;;;;;24.38;25.59;100486.98;108378;1263;62899;-63
2023/06/01 08:53:18;;;;;;;7.00;1.90;;;;;;;24.39;25.64;100483.41;105694;1264;61502;-64
2023/06/01 08:55:46;;;;;;;6.50;2.10;;;;;;;24.42;25.13;100480.14;104130;1264;64231;-65
2023/06/01 08:58:14;;;;;;;5.10;1.80;;;;;;;24.44;24.84;100477.69;104047;1264;59813;-63
2023/06/01 09:00:41;;;;;;;5.90;1.90;;;;;;;24.48;24.90;100474.65;103958;1264;60520;-65
2023/06/01 09:03:09;;;;;;;5.80;2.20;;;;;;;24.49;25.30;100472.86;109120;1251;64074;-67
2023/06/01 09:05:38;;;;;;;10.10;2.00;;;;;;;24.53;25.66;100468.01;109099;1253;70507;-63
2023/06/01 09:08:06;;;;;;;7.30;1.90;;;;;;;24.59;26.46;100468.05;108942;1257;63740;-67
2023/06/01 09:10:33;;;;;;;6.00;1.60;;;;;;;24.68;26.70;100467.36;109157;1251;58431;-65
2023/06/01 09:13:01;;;;;;;4.90;1.40;;;;;;;24.76;26.08;100467.61;109150;1251;57638;-64
2023/06/01 09:15:28;;;;;;;6.50;1.80;;;;;;;24.81;25.54;100460.09;109179;1251;62805;-67
2023/06/01 09:18:07;;;;;;;7.40;1.80;;;;;;;24.85;25.48;100459.33;109202;1251;61379;-65
2023/06/01 09:20:37;;;;;;;8.10;1.70;;;;;;;24.90;25.09;100465.97;109246;1257;64095;-62
2023/06/01 09:23:04;;;;;;;5.90;1.90;;;;;;;24.97;24.95;100465.55;109153;1251;59364;-63
2023/06/01 09:25:33;;;;;;;7.10;2.00;;;;;;;25.01;24.94;100460.44;109197;1251;57557;-65
2023/06/01 09:28:01;;;;;;;5.60;2.10;;;;;;;25.04;25.39;100453.88;109172;1251;75276;-64
2023/06/01 09:30:42;;;;;;;8.40;2.00;;;;;;;25.09;24.97;100452.60;108136;1256;61876;-64
2023/06/01 09:33:15;;;;;;;6.90;2.30;;;;;;;25.14;25.22;100450.97;109045;1254;62564;-67
2023/06/01 09:35:47;;;;;;;5.70;2.10;;;;;;;25.23;25.07;100450.61;109121;1251;57642;-64
2023/06/01 09:38:22;;;;;;;5.30;1.80;;;;;;;25.32;24.82;100449.28;109056;1256;58581;-64
2023/06/01 09:41:02;;;;;;;6.70;2.10;;;;;;;25.36;24.59;100449.95;109173;1251;64152;-67
2023/06/01 09:43:36;;;;;;;7.10;1.90;;;;;;;25.39;24.16;100454.78;109113;1251;62595;-63
2023/06/01 09:46:08;;;;;;;4.80;1.70;;;;;;;25.41;24.07;100448.23;109153;1251;62445;-62
2023/06/01 09:48:36;;;;;;;4.40;2.00;;;;;;;25.46;24.78;100441.97;109158;1251;57426;-62
2023/06/01 09:51:04;;;;;;;4.80;1.70;;;;;;;25.56;24.57;100439.11;109190;1251;58600;-60
2023/06/01 09:53:42;;;;;;;6.50;2.00;;;;;;;25.67;24.45;100441.83;109077;1251;62994;-59
2023/06/01 09:56:09;;;;;;;5.60;1.90;;;;;;;25.78;24.51;100435.96;109176;1251;61406;-67
2023/06/01 09:58:39;;;;;;;6.40;1.90;;;;;;;25.87;24.68;100436.75;109188;1251;62508;-63
2023/06/01 10:01:10;;;;;;;5.30;1.80;;;;;;;25.94;23.58;100441.84;108902;1251;57800;-62
2023/06/01 10:03:41;;;;;;;5.60;1.90;;;;;;;25.93;23.44;100437.03;109164;1251;58068;-60
2023/06/01 10:06:11;;;;;;;5.30;2.00;;;;;;;25.92;23.75;100433.84;109176;1251;64147;-66
2023/06/01 10:08:38;;;;;;;9.60;2.30;;;;;;;25.91;23.39;100438.79;105340;1257;60425;-65
2023/06/01 10:11:07;;;;;;;5.90;2.00;;;;;;;25.87;23.57;100437.42;105204;1257;62526;-59
2023/06/01 10:13:35;;;;;;;12.10;2.00;;;;;;;25.84;23.50;100427.81;109144;1253;57808;-66
2023/06/01 10:16:03;;;;;;;6.50;2.30;;;;;;;25.85;23.49;100422.92;109079;1251;57864;-67
2023/06/01 10:18:32;;;;;;;5.80;2.10;;;;;;;25.87;24.12;100423.58;109183;1251;64100;-66
2023/06/01 10:21:00;;;;;;;4.80;1.90;;;;;;;25.95;24.62;100423.80;109158;1251;60303;-67
2023/06/01 10:23:28;;;;;;;3.80;1.80;;;;;;;26.05;23.79;100426.36;108959;1251;63758;-66
2023/06/01 10:26:00;;;;;;;6.60;1.80;;;;;;;26.07;23.72;100420.77;109149;1253;59682;-67
2023/06/01 10:28:29;;;;;;;5.10;2.20;;;;;;;26.11;24.10;100420.35;108949;1251;59520;-67
2023/06/01 10:31:35;;;;;;;4.50;1.80;;;;;;;26.19;24.36;100420.97;108895;1260;64063;-66
2023/06/01 10:34:04;;;;;;;5.00;1.90;;;;;;;26.26;23.66;100413.50;108877;1251;61427;-65
2023/06/01 10:36:51;;;;;;;11.40;2.30;;;;;;;26.31;23.87;100412.61;109107;1251;63826;-67
2023/06/01 10:39:22;;;;;;;5.60;2.20;;;;;;;26.36;23.84;100413.17;109096;1251;57907;-63
2023/06/01 10:41:49;;;;;;;10.20;2.50;;;;;;;26.39;23.96;100406.95;109150;1254;57912;-66
2023/06/01 10:44:39;;;;;;;7.20;2.00;;;;;;;26.45;24.08;100405.67;109111;1253;64346;-66
2023/06/01 10:47:32;;;;;;;7.10;2.40;;;;;;;26.54;23.87;100396.46;109129;1258;61850;-65
2023/06/01 10:50:00;;;;;;;6.00;2.30;;;;;;;26.62;23.82;100389.35;109126;1254;62574;-62
2023/06/01 10:52:41;;;;;;;5.00;1.70;;;;;;;26.68;23.67;100386.45;109171;1251;58873;-66
2023/06/01 10:55:13;;;;;;;6.40;2.30;;;;;;;26.74;23.61;100384.51;109125;1252;58303;-66
2023/06/01 10:57:44;;;;;;;10.00;2.50;;;;;;;26.82;23.63;100379.42;109120;1251;62814;-62
2023/06/01 11:00:14;;;;;;;5.00;2.30;;;;;;;26.90;23.79;100377.51;109178;1251;60252;-63
2023/06/01 11:02:53;;;;;;;7.40;2.40;;;;;;;26.96;23.21;100377.98;109122;1251;63746;-65
2023/06/01 11:05:40;;;;;;;5.50;2.50;;;;;;;27.01;23.21;100374.87;109087;1251;58606;-67
2023/06/01 11:08:25;;;;;;;6.00;2.30;;;;;;;27.10;23.74;100367.46;109182;1251;58188;-62
2023/06/01 11:10:53;;;;;;;5.50;2.10;;;;;;;27.24;23.52;100362.70;109181;1253;65805;-69
2023/06/01 11:13:31;;;;;;;5.70;2.30;;;;;;;27.38;23.91;100358.17;107532;1251;60348;-64
2023/06/01 11:16:13;;;;;;;7.00;2.30;;;;;;;27.49;23.41;100354.65;109126;1251;64792;-62
2023/06/01 11:19:00;;;;;;;7.00;2.50;;;;;;;27.59;23.02;100356.23;109150;1258;59185;-62
2023/06/01 11:21:39;;;;;;;4.70;1.90;;;;;;;27.60;22.69;100356.33;109067;1254;58870;-63
2023/06/01 11:24:11;;;;;;;6.80;2.20;;;;;;;27.56;22.56;100349.84;109101;1254;63654;-63
2023/06/01 11:26:41;;;;;;;5.20;2.40;;;;;;;27.54;22.69;100348.07;109196;1251;61938;-64
2023/06/01 11:29:11;;;;;;;10.10;2.70;;;;;;;27.53;22.64;100345.55;109170;1251;63717;-60
2023/06/01 11:31:43;;;;;;;4.70;2.20;;;;;;;27.51;22.80;100346.48;109189;1251;58546;-64
2023/06/01 11:34:11;;;;;;;7.10;2.50;;;;;;;27.52;22.98;100342.13;109126;1251;58179;-61
2023/06/01 11:36:44;;;;;;;6.40;2.40;;;;;;;27.60;23.63;100340.83;109185;1251;65438;-63